sensor_id;sensor_type;location;lat;lon;timestamp;temperature;humidity
23251;DHT22;11794;49.730;10.088;2024-03-08T00:00:08;2.50;99.90
23251;DHT22;11794;49.730;10.088;2024-03-08T00:02:36;2.50;99.90
23251;DHT22;11794;49.730;10.088;2024-03-08T00:05:05;2.50;99.90
23251;DHT22;11794;49.730;10.088;2024-03-08T00:07:31;2.50;99.90
23251;DHT22;11794;49.730;10.088;2024-03-08T00:09:57;2.50;99.90
23251;DHT22;11794;49.730;10.088;2024-03-08T00:12:22;2.50;99.90
23251;DHT22;11794;49.730;10.088;2024-03-08T00:14:48;2.40;99.90
23251;DHT22;11794;49.730;10.088;2024-03-08T00:17:13;2.30;99.90
23251;DHT22;11794;49.730;10.088;2024-03-08T00:19:41;2.30;99.90
23251;DHT22;11794;49.730;10.088;2024-03-08T00:22:06;2.30;99.90
23251;DHT22;11794;49.730;10.088;2024-03-08T00:24:33;2.20;99.90
23251;DHT22;11794;49.730;10.088;2024-03-08T00:26:58;2.20;99.90
23251;DHT22;11794;49.730;10.088;2024-03-08T00:29:24;2.30;99.90
23251;DHT22;11794;49.730;10.088;2024-03-08T00:31:50;2.20;99.90
23251;DHT22;11794;49.730;10.088;2024-03-08T00:34:15;2.20;99.90
23251;DHT22;11794;49.730;10.088;2024-03-08T00:36:41;2.20;99.90
23251;DHT22;11794;49.730;10.088;2024-03-08T00:39:06;2.10;99.90
23251;DHT22;11794;49.730;10.088;2024-03-08T00:41:32;2.10;99.90
23251;DHT22;11794;49.730;10.088;2024-03-08T00:43:58;2.10;99.90
23251;DHT22;11794;49.730;10.088;2024-03-08T00:46:23;2.10;99.90
23251;DHT22;11794;49.730;10.088;2024-03-08T00:48:49;2.10;99.90
23251;DHT22;11794;49.730;10.088;2024-03-08T00:51:14;2.10;99.90
23251;DHT22;11794;49.730;10.088;2024-03-08T00:53:43;2.00;99.90
23251;DHT22;11794;49.730;10.088;2024-03-08T00:56:09;1.90;99.90
23251;DHT22;11794;49.730;10.088;2024-03-08T00:58:37;1.90;99.90
23251;DHT22;11794;49.730;10.088;2024-03-08T01:01:03;1.90;99.90
23251;DHT22;11794;49.730;10.088;2024-03-08T01:03:30;2.00;99.90
23251;DHT22;11794;49.730;10.088;2024-03-08T01:05:57;2.00;99.90
23251;DHT22;11794;49.730;10.088;2024-03-08T01:08:22;1.90;99.90
23251;DHT22;11794;49.730;10.088;2024-03-08T01:10:48;1.90;99.90
23251;DHT22;11794;49.730;10.088;2024-03-08T01:13:16;1.90;99.90
23251;DHT22;11794;49.730;10.088;2024-03-08T01:15:41;1.90;99.90
23251;DHT22;11794;49.730;10.088;2024-03-08T01:18:07;1.80;99.90
23251;DHT22;11794;49.730;10.088;2024-03-08T01:20:33;1.80;99.90
23251;DHT22;11794;49.730;10.088;2024-03-08T01:22:58;1.80;99.90
23251;DHT22;11794;49.730;10.088;2024-03-08T01:25:24;1.70;99.90
23251;DHT22;11794;49.730;10.088;2024-03-08T01:27:50;1.70;99.90
23251;DHT22;11794;49.730;10.088;2024-03-08T01:30:15;1.60;99.90
23251;DHT22;11794;49.730;10.088;2024-03-08T01:32:43;1.60;99.90
23251;DHT22;11794;49.730;10.088;2024-03-08T01:35:09;1.60;99.90
23251;DHT22;11794;49.730;10.088;2024-03-08T01:37:35;1.50;99.90
23251;DHT22;11794;49.730;10.088;2024-03-08T01:40:00;1.50;99.90
23251;DHT22;11794;49.730;10.088;2024-03-08T01:42:26;1.40;99.90
23251;DHT22;11794;49.730;10.088;2024-03-08T01:44:51;1.40;99.90
23251;DHT22;11794;49.730;10.088;2024-03-08T01:47:17;1.40;99.90
23251;DHT22;11794;49.730;10.088;2024-03-08T01:49:43;1.40;99.90
23251;DHT22;11794;49.730;10.088;2024-03-08T01:52:09;1.40;99.90
23251;DHT22;11794;49.730;10.088;2024-03-08T01:54:36;1.30;99.90
23251;DHT22;11794;49.730;10.088;2024-03-08T01:57:02;1.20;99.90
23251;DHT22;11794;49.730;10.088;2024-03-08T01:59:29;1.20;99.90
23251;DHT22;11794;49.730;10.088;2024-03-08T02:01:55;1.20;99.90
23251;DHT22;11794;49.730;10.088;2024-03-08T02:04:25;1.20;99.90
23251;DHT22;11794;49.730;10.088;2024-03-08T02:06:51;1.20;99.90
23251;DHT22;11794;49.730;10.088;2024-03-08T02:09:17;1.20;99.90
23251;DHT22;11794;49.730;10.088;2024-03-08T02:11:42;1.20;99.90
23251;DHT22;11794;49.730;10.088;2024-03-08T02:14:08;1.20;99.90
23251;DHT22;11794;49.730;10.088;2024-03-08T02:16:34;1.00;99.90
23251;DHT22;11794;49.730;10.088;2024-03-08T02:19:00;1.00;99.90
23251;DHT22;11794;49.730;10.088;2024-03-08T02:21:26;0.90;99.90
23251;DHT22;11794;49.730;10.088;2024-03-08T02:23:51;0.90;99.90
23251;DHT22;11794;49.730;10.088;2024-03-08T02:26:17;0.90;99.90
23251;DHT22;11794;49.730;10.088;2024-03-08T02:28:44;0.90;99.90
23251;DHT22;11794;49.730;10.088;2024-03-08T02:31:10;0.90;99.90
23251;DHT22;11794;49.730;10.088;2024-03-08T02:33:36;1.00;99.90
23251;DHT22;11794;49.730;10.088;2024-03-08T02:36:01;1.00;99.90
23251;DHT22;11794;49.730;10.088;2024-03-08T02:38:28;1.00;99.90
23251;DHT22;11794;49.730;10.088;2024-03-08T02:40:54;1.00;99.90
23251;DHT22;11794;49.730;10.088;2024-03-08T02:43:20;0.90;99.90
23251;DHT22;11794;49.730;10.088;2024-03-08T02:45:50;0.90;99.90
23251;DHT22;11794;49.730;10.088;2024-03-08T02:48:15;0.90;99.90
23251;DHT22;11794;49.730;10.088;2024-03-08T02:50:44;0.80;99.90
23251;DHT22;11794;49.730;10.088;2024-03-08T02:53:10;0.80;99.90
23251;DHT22;11794;49.730;10.088;2024-03-08T02:55:39;0.70;99.90
23251;DHT22;11794;49.730;10.088;2024-03-08T02:58:06;0.70;99.90
23251;DHT22;11794;49.730;10.088;2024-03-08T03:00:34;0.70;99.90
23251;DHT22;11794;49.730;10.088;2024-03-08T03:02:59;0.60;99.90
23251;DHT22;11794;49.730;10.088;2024-03-08T03:05:25;0.60;99.90
23251;DHT22;11794;49.730;10.088;2024-03-08T03:07:51;0.50;99.90
23251;DHT22;11794;49.730;10.088;2024-03-08T03:10:17;0.40;99.90
23251;DHT22;11794;49.730;10.088;2024-03-08T03:12:43;0.40;99.90
23251;DHT22;11794;49.730;10.088;2024-03-08T03:15:10;0.40;99.90
23251;DHT22;11794;49.730;10.088;2024-03-08T03:17:37;0.30;99.90
23251;DHT22;11794;49.730;10.088;2024-03-08T03:20:05;0.30;99.90
23251;DHT22;11794;49.730;10.088;2024-03-08T03:22:36;0.30;99.90
23251;DHT22;11794;49.730;10.088;2024-03-08T03:25:02;0.30;99.90
23251;DHT22;11794;49.730;10.088;2024-03-08T03:27:29;0.30;99.90
23251;DHT22;11794;49.730;10.088;2024-03-08T03:29:55;0.20;99.90
23251;DHT22;11794;49.730;10.088;2024-03-08T03:32:23;0.20;99.90
23251;DHT22;11794;49.730;10.088;2024-03-08T03:34:48;0.20;99.90
23251;DHT22;11794;49.730;10.088;2024-03-08T03:37:18;0.20;99.90
23251;DHT22;11794;49.730;10.088;2024-03-08T03:39:45;0.20;99.90
23251;DHT22;11794;49.730;10.088;2024-03-08T03:42:19;0.20;99.90
23251;DHT22;11794;49.730;10.088;2024-03-08T03:44:48;0.10;99.90
23251;DHT22;11794;49.730;10.088;2024-03-08T03:47:14;0.10;99.90
23251;DHT22;11794;49.730;10.088;2024-03-08T03:49:43;0.10;99.90
23251;DHT22;11794;49.730;10.088;2024-03-08T03:52:09;0.10;99.90
23251;DHT22;11794;49.730;10.088;2024-03-08T03:54:35;0.10;99.90
23251;DHT22;11794;49.730;10.088;2024-03-08T03:57:01;0.00;99.90
23251;DHT22;11794;49.730;10.088;2024-03-08T03:59:28;0.00;99.90
23251;DHT22;11794;49.730;10.088;2024-03-08T04:01:54;0.00;99.90
23251;DHT22;11794;49.730;10.088;2024-03-08T04:04:20;0.00;99.90
23251;DHT22;11794;49.730;10.088;2024-03-08T04:06:45;0.00;99.90
23251;DHT22;11794;49.730;10.088;2024-03-08T04:09:11;0.00;99.90
23251;DHT22;11794;49.730;10.088;2024-03-08T04:11:38;-0.10;99.90
23251;DHT22;11794;49.730;10.088;2024-03-08T04:14:03;-0.10;99.90
23251;DHT22;11794;49.730;10.088;2024-03-08T04:16:30;-0.10;99.90
23251;DHT22;11794;49.730;10.088;2024-03-08T04:18:57;0.00;99.90
23251;DHT22;11794;49.730;10.088;2024-03-08T04:21:22;-0.10;99.90
23251;DHT22;11794;49.730;10.088;2024-03-08T04:23:48;0.00;99.90
23251;DHT22;11794;49.730;10.088;2024-03-08T04:26:13;-0.10;99.90
23251;DHT22;11794;49.730;10.088;2024-03-08T04:28:39;-0.10;99.90
23251;DHT22;11794;49.730;10.088;2024-03-08T04:31:05;-0.20;99.90
23251;DHT22;11794;49.730;10.088;2024-03-08T04:33:32;-0.20;99.90
23251;DHT22;11794;49.730;10.088;2024-03-08T04:35:57;-0.20;99.90
23251;DHT22;11794;49.730;10.088;2024-03-08T04:38:23;-0.20;99.90
23251;DHT22;11794;49.730;10.088;2024-03-08T04:40:51;-0.20;99.90
23251;DHT22;11794;49.730;10.088;2024-03-08T04:43:17;-0.30;99.90
23251;DHT22;11794;49.730;10.088;2024-03-08T04:45:44;-0.20;99.90
23251;DHT22;11794;49.730;10.088;2024-03-08T04:48:09;-0.30;99.90
23251;DHT22;11794;49.730;10.088;2024-03-08T04:50:35;-0.30;99.90
23251;DHT22;11794;49.730;10.088;2024-03-08T04:53:01;-0.30;99.90
23251;DHT22;11794;49.730;10.088;2024-03-08T04:55:26;-0.30;99.90
23251;DHT22;11794;49.730;10.088;2024-03-08T04:57:52;-0.30;99.90
23251;DHT22;11794;49.730;10.088;2024-03-08T05:00:18;-0.30;99.90
23251;DHT22;11794;49.730;10.088;2024-03-08T05:02:44;-0.30;99.90
23251;DHT22;11794;49.730;10.088;2024-03-08T05:05:10;-0.30;99.90
23251;DHT22;11794;49.730;10.088;2024-03-08T05:07:38;-0.30;99.90
23251;DHT22;11794;49.730;10.088;2024-03-08T05:10:05;-0.30;99.90
23251;DHT22;11794;49.730;10.088;2024-03-08T05:12:32;-0.30;99.90
23251;DHT22;11794;49.730;10.088;2024-03-08T05:14:57;-0.30;99.90
23251;DHT22;11794;49.730;10.088;2024-03-08T05:17:23;-0.30;99.90
23251;DHT22;11794;49.730;10.088;2024-03-08T05:19:49;-0.30;99.90
23251;DHT22;11794;49.730;10.088;2024-03-08T05:22:15;-0.30;99.90
23251;DHT22;11794;49.730;10.088;2024-03-08T05:24:41;-0.30;99.90
23251;DHT22;11794;49.730;10.088;2024-03-08T05:27:06;-0.30;99.90
23251;DHT22;11794;49.730;10.088;2024-03-08T05:29:32;-0.40;99.90
23251;DHT22;11794;49.730;10.088;2024-03-08T05:31:58;-0.40;99.90
23251;DHT22;11794;49.730;10.088;2024-03-08T05:34:24;-0.30;99.90
23251;DHT22;11794;49.730;10.088;2024-03-08T05:36:51;-0.30;99.90
23251;DHT22;11794;49.730;10.088;2024-03-08T05:39:18;-0.40;99.90
23251;DHT22;11794;49.730;10.088;2024-03-08T05:41:44;-0.30;99.90
23251;DHT22;11794;49.730;10.088;2024-03-08T05:44:10;-0.30;99.90
23251;DHT22;11794;49.730;10.088;2024-03-08T05:46:36;-0.20;99.90
23251;DHT22;11794;49.730;10.088;2024-03-08T05:49:03;-0.30;99.90
23251;DHT22;11794;49.730;10.088;2024-03-08T05:51:32;-0.30;99.90
23251;DHT22;11794;49.730;10.088;2024-03-08T05:54:01;-0.20;99.90
23251;DHT22;11794;49.730;10.088;2024-03-08T05:56:28;-0.20;99.90
23251;DHT22;11794;49.730;10.088;2024-03-08T05:58:54;-0.10;99.90
23251;DHT22;11794;49.730;10.088;2024-03-08T06:01:20;-0.10;99.90
23251;DHT22;11794;49.730;10.088;2024-03-08T06:03:45;-0.10;99.90
23251;DHT22;11794;49.730;10.088;2024-03-08T06:06:13;0.00;99.90
23251;DHT22;11794;49.730;10.088;2024-03-08T06:08:39;0.00;99.90
23251;DHT22;11794;49.730;10.088;2024-03-08T06:11:04;0.00;99.90
23251;DHT22;11794;49.730;10.088;2024-03-08T06:13:32;0.00;99.90
23251;DHT22;11794;49.730;10.088;2024-03-08T06:15:57;0.10;99.90
23251;DHT22;11794;49.730;10.088;2024-03-08T06:18:23;0.10;99.90
23251;DHT22;11794;49.730;10.088;2024-03-08T06:20:48;0.20;99.90
23251;DHT22;11794;49.730;10.088;2024-03-08T06:23:14;0.30;99.90
23251;DHT22;11794;49.730;10.088;2024-03-08T06:25:45;0.50;99.90
23251;DHT22;11794;49.730;10.088;2024-03-08T06:28:11;0.60;99.90
23251;DHT22;11794;49.730;10.088;2024-03-08T06:30:37;0.80;99.90
23251;DHT22;11794;49.730;10.088;2024-03-08T06:33:02;1.10;99.90
23251;DHT22;11794;49.730;10.088;2024-03-08T06:35:28;1.50;99.90
23251;DHT22;11794;49.730;10.088;2024-03-08T06:37:53;1.80;99.90
23251;DHT22;11794;49.730;10.088;2024-03-08T06:40:19;2.00;99.90
23251;DHT22;11794;49.730;10.088;2024-03-08T06:42:44;2.20;99.90
23251;DHT22;11794;49.730;10.088;2024-03-08T06:45:11;2.40;99.90
23251;DHT22;11794;49.730;10.088;2024-03-08T06:47:37;2.60;99.90
23251;DHT22;11794;49.730;10.088;2024-03-08T06:50:03;2.80;99.90
23251;DHT22;11794;49.730;10.088;2024-03-08T06:52:29;2.80;99.90
23251;DHT22;11794;49.730;10.088;2024-03-08T06:54:55;2.90;99.90
23251;DHT22;11794;49.730;10.088;2024-03-08T06:57:20;3.10;99.90
23251;DHT22;11794;49.730;10.088;2024-03-08T06:59:47;3.20;99.90
23251;DHT22;11794;49.730;10.088;2024-03-08T07:02:13;3.20;99.90
23251;DHT22;11794;49.730;10.088;2024-03-08T07:04:39;3.30;99.90
23251;DHT22;11794;49.730;10.088;2024-03-08T07:07:05;3.40;99.90
23251;DHT22;11794;49.730;10.088;2024-03-08T07:09:30;3.30;99.90
23251;DHT22;11794;49.730;10.088;2024-03-08T07:11:56;3.50;99.90
23251;DHT22;11794;49.730;10.088;2024-03-08T07:14:24;3.40;99.90
23251;DHT22;11794;49.730;10.088;2024-03-08T07:16:50;3.70;99.90
23251;DHT22;11794;49.730;10.088;2024-03-08T07:19:19;3.80;99.90
23251;DHT22;11794;49.730;10.088;2024-03-08T07:21:44;3.70;99.90
23251;DHT22;11794;49.730;10.088;2024-03-08T07:24:11;3.60;99.90
23251;DHT22;11794;49.730;10.088;2024-03-08T07:26:39;3.60;99.90
23251;DHT22;11794;49.730;10.088;2024-03-08T07:29:05;3.60;99.90
23251;DHT22;11794;49.730;10.088;2024-03-08T07:31:31;3.60;99.90
23251;DHT22;11794;49.730;10.088;2024-03-08T07:34:02;3.80;99.90
23251;DHT22;11794;49.730;10.088;2024-03-08T07:36:28;4.10;99.90
23251;DHT22;11794;49.730;10.088;2024-03-08T07:38:54;4.30;99.90
23251;DHT22;11794;49.730;10.088;2024-03-08T07:41:19;4.40;99.90
23251;DHT22;11794;49.730;10.088;2024-03-08T07:43:45;4.70;99.90
23251;DHT22;11794;49.730;10.088;2024-03-08T07:46:11;4.70;99.90
23251;DHT22;11794;49.730;10.088;2024-03-08T07:48:38;4.70;99.90
23251;DHT22;11794;49.730;10.088;2024-03-08T07:51:05;5.10;99.90
23251;DHT22;11794;49.730;10.088;2024-03-08T07:53:31;5.30;99.90
23251;DHT22;11794;49.730;10.088;2024-03-08T07:55:56;5.30;99.90
23251;DHT22;11794;49.730;10.088;2024-03-08T07:58:22;5.60;99.90
23251;DHT22;11794;49.730;10.088;2024-03-08T08:00:48;5.90;99.90
23251;DHT22;11794;49.730;10.088;2024-03-08T08:03:14;6.30;99.90
23251;DHT22;11794;49.730;10.088;2024-03-08T08:05:39;6.20;99.90
23251;DHT22;11794;49.730;10.088;2024-03-08T08:08:07;6.70;99.90
23251;DHT22;11794;49.730;10.088;2024-03-08T08:10:33;7.30;99.90
23251;DHT22;11794;49.730;10.088;2024-03-08T08:12:58;7.90;99.90
23251;DHT22;11794;49.730;10.088;2024-03-08T08:15:24;8.30;99.90
23251;DHT22;11794;49.730;10.088;2024-03-08T08:17:50;8.90;99.90
23251;DHT22;11794;49.730;10.088;2024-03-08T08:20:17;8.80;99.90
23251;DHT22;11794;49.730;10.088;2024-03-08T08:22:43;9.10;99.90
23251;DHT22;11794;49.730;10.088;2024-03-08T08:25:09;9.20;99.90
23251;DHT22;11794;49.730;10.088;2024-03-08T08:27:38;9.70;99.90
23251;DHT22;11794;49.730;10.088;2024-03-08T08:30:05;9.60;99.90
23251;DHT22;11794;49.730;10.088;2024-03-08T08:32:35;9.70;99.90
23251;DHT22;11794;49.730;10.088;2024-03-08T08:35:05;9.30;99.90
23251;DHT22;11794;49.730;10.088;2024-03-08T08:37:31;8.50;99.90
23251;DHT22;11794;49.730;10.088;2024-03-08T08:39:57;8.40;99.90
23251;DHT22;11794;49.730;10.088;2024-03-08T08:42:23;8.60;99.90
23251;DHT22;11794;49.730;10.088;2024-03-08T08:44:49;9.00;99.90
23251;DHT22;11794;49.730;10.088;2024-03-08T08:47:16;9.40;99.90
23251;DHT22;11794;49.730;10.088;2024-03-08T08:49:44;9.20;99.90
23251;DHT22;11794;49.730;10.088;2024-03-08T08:52:11;9.30;99.90
23251;DHT22;11794;49.730;10.088;2024-03-08T08:54:37;9.30;99.90
23251;DHT22;11794;49.730;10.088;2024-03-08T08:57:02;8.70;99.90
23251;DHT22;11794;49.730;10.088;2024-03-08T08:59:36;8.30;99.90
23251;DHT22;11794;49.730;10.088;2024-03-08T09:02:02;8.70;99.90
23251;DHT22;11794;49.730;10.088;2024-03-08T09:04:29;9.10;99.90
23251;DHT22;11794;49.730;10.088;2024-03-08T09:06:56;9.10;99.90
23251;DHT22;11794;49.730;10.088;2024-03-08T09:09:22;8.50;99.90
23251;DHT22;11794;49.730;10.088;2024-03-08T09:11:48;8.80;99.90
23251;DHT22;11794;49.730;10.088;2024-03-08T09:14:15;9.40;99.90
23251;DHT22;11794;49.730;10.088;2024-03-08T09:16:40;8.90;99.90
23251;DHT22;11794;49.730;10.088;2024-03-08T09:19:06;9.20;99.90
23251;DHT22;11794;49.730;10.088;2024-03-08T09:21:32;9.40;99.90
23251;DHT22;11794;49.730;10.088;2024-03-08T09:23:58;9.80;99.90
23251;DHT22;11794;49.730;10.088;2024-03-08T09:26:24;10.10;99.90
23251;DHT22;11794;49.730;10.088;2024-03-08T09:28:49;10.40;99.90
23251;DHT22;11794;49.730;10.088;2024-03-08T09:31:15;10.00;99.90
23251;DHT22;11794;49.730;10.088;2024-03-08T09:33:42;10.30;99.90
23251;DHT22;11794;49.730;10.088;2024-03-08T09:36:07;9.30;99.90
23251;DHT22;11794;49.730;10.088;2024-03-08T09:38:33;9.20;99.90
23251;DHT22;11794;49.730;10.088;2024-03-08T09:41:00;9.40;99.90
23251;DHT22;11794;49.730;10.088;2024-03-08T09:43:27;9.20;99.90
23251;DHT22;11794;49.730;10.088;2024-03-08T09:45:53;9.60;99.90
23251;DHT22;11794;49.730;10.088;2024-03-08T09:48:21;9.80;99.90
23251;DHT22;11794;49.730;10.088;2024-03-08T09:50:47;10.10;99.90
23251;DHT22;11794;49.730;10.088;2024-03-08T09:53:13;10.50;99.90
23251;DHT22;11794;49.730;10.088;2024-03-08T09:55:39;10.30;99.90
23251;DHT22;11794;49.730;10.088;2024-03-08T09:58:08;11.00;99.90
23251;DHT22;11794;49.730;10.088;2024-03-08T10:00:43;11.10;99.90
23251;DHT22;11794;49.730;10.088;2024-03-08T10:03:08;10.90;99.90
23251;DHT22;11794;49.730;10.088;2024-03-08T10:05:34;10.70;99.90
23251;DHT22;11794;49.730;10.088;2024-03-08T10:08:00;10.60;99.90
23251;DHT22;11794;49.730;10.088;2024-03-08T10:10:25;10.60;99.90
23251;DHT22;11794;49.730;10.088;2024-03-08T10:12:51;10.70;99.90
23251;DHT22;11794;49.730;10.088;2024-03-08T10:15:17;10.80;99.90
23251;DHT22;11794;49.730;10.088;2024-03-08T10:17:43;11.30;99.90
23251;DHT22;11794;49.730;10.088;2024-03-08T10:20:18;11.20;99.90
23251;DHT22;11794;49.730;10.088;2024-03-08T10:22:44;11.20;99.90
23251;DHT22;11794;49.730;10.088;2024-03-08T10:25:11;10.70;99.90
23251;DHT22;11794;49.730;10.088;2024-03-08T10:27:38;10.80;99.90
23251;DHT22;11794;49.730;10.088;2024-03-08T10:30:07;10.70;99.90
23251;DHT22;11794;49.730;10.088;2024-03-08T10:32:35;11.20;99.90
23251;DHT22;11794;49.730;10.088;2024-03-08T10:35:01;11.30;99.90
23251;DHT22;11794;49.730;10.088;2024-03-08T10:37:27;11.50;99.90
23251;DHT22;11794;49.730;10.088;2024-03-08T10:40:03;11.40;99.90
23251;DHT22;11794;49.730;10.088;2024-03-08T10:42:50;11.70;99.90
23251;DHT22;11794;49.730;10.088;2024-03-08T10:48:31;10.70;99.90
23251;DHT22;11794;49.730;10.088;2024-03-08T10:50:59;10.90;99.90
23251;DHT22;11794;49.730;10.088;2024-03-08T10:53:27;10.90;99.90
23251;DHT22;11794;49.730;10.088;2024-03-08T10:55:53;11.50;99.90
23251;DHT22;11794;49.730;10.088;2024-03-08T10:58:22;11.90;99.90
23251;DHT22;11794;49.730;10.088;2024-03-08T11:00:48;12.40;99.90
23251;DHT22;11794;49.730;10.088;2024-03-08T11:06:17;12.80;99.90
23251;DHT22;11794;49.730;10.088;2024-03-08T11:08:44;13.10;99.90
23251;DHT22;11794;49.730;10.088;2024-03-08T11:13:52;12.70;99.90
23251;DHT22;11794;49.730;10.088;2024-03-08T11:18:59;13.40;99.90
23251;DHT22;11794;49.730;10.088;2024-03-08T11:21:33;12.60;99.90
23251;DHT22;11794;49.730;10.088;2024-03-08T11:24:00;12.80;99.90
23251;DHT22;11794;49.730;10.088;2024-03-08T11:26:26;12.40;99.90
23251;DHT22;11794;49.730;10.088;2024-03-08T11:28:51;12.80;99.90
23251;DHT22;11794;49.730;10.088;2024-03-08T11:31:22;13.10;99.90
23251;DHT22;11794;49.730;10.088;2024-03-08T11:33:47;13.20;99.80
23251;DHT22;11794;49.730;10.088;2024-03-08T11:36:21;13.70;99.50
23251;DHT22;11794;49.730;10.088;2024-03-08T11:38:48;14.20;98.30
23251;DHT22;11794;49.730;10.088;2024-03-08T11:41:17;13.80;99.10
23251;DHT22;11794;49.730;10.088;2024-03-08T11:43:48;13.80;98.60
23251;DHT22;11794;49.730;10.088;2024-03-08T11:46:15;12.90;99.00
23251;DHT22;11794;49.730;10.088;2024-03-08T11:48:42;12.90;99.90
23251;DHT22;11794;49.730;10.088;2024-03-08T11:51:10;13.80;99.20
23251;DHT22;11794;49.730;10.088;2024-03-08T11:53:37;14.50;98.10
23251;DHT22;11794;49.730;10.088;2024-03-08T11:56:13;15.10;97.90
23251;DHT22;11794;49.730;10.088;2024-03-08T11:58:40;15.40;97.20
23251;DHT22;11794;49.730;10.088;2024-03-08T12:01:10;15.30;96.30
23251;DHT22;11794;49.730;10.088;2024-03-08T12:03:39;14.40;96.70
23251;DHT22;11794;49.730;10.088;2024-03-08T12:06:08;14.20;97.20
23251;DHT22;11794;49.730;10.088;2024-03-08T12:08:35;14.90;97.10
23251;DHT22;11794;49.730;10.088;2024-03-08T12:11:00;14.60;96.80
23251;DHT22;11794;49.730;10.088;2024-03-08T12:13:33;14.60;97.00
23251;DHT22;11794;49.730;10.088;2024-03-08T12:16:00;15.10;96.30
23251;DHT22;11794;49.730;10.088;2024-03-08T12:18:26;16.10;94.30
23251;DHT22;11794;49.730;10.088;2024-03-08T12:21:04;16.20;94.70
23251;DHT22;11794;49.730;10.088;2024-03-08T12:23:30;15.80;93.90
23251;DHT22;11794;49.730;10.088;2024-03-08T12:25:56;15.40;95.10
23251;DHT22;11794;49.730;10.088;2024-03-08T12:28:22;16.40;95.30
23251;DHT22;11794;49.730;10.088;2024-03-08T12:30:49;16.70;93.80
23251;DHT22;11794;49.730;10.088;2024-03-08T12:33:16;16.30;93.40
23251;DHT22;11794;49.730;10.088;2024-03-08T12:35:53;16.30;93.70
23251;DHT22;11794;49.730;10.088;2024-03-08T12:38:23;16.70;93.30
23251;DHT22;11794;49.730;10.088;2024-03-08T12:40:55;16.10;93.00
23251;DHT22;11794;49.730;10.088;2024-03-08T12:43:20;15.60;93.40
23251;DHT22;11794;49.730;10.088;2024-03-08T12:45:46;15.70;93.30
23251;DHT22;11794;49.730;10.088;2024-03-08T12:48:15;16.80;93.30
23251;DHT22;11794;49.730;10.088;2024-03-08T12:50:41;17.70;91.40
23251;DHT22;11794;49.730;10.088;2024-03-08T12:53:10;17.20;91.10
23251;DHT22;11794;49.730;10.088;2024-03-08T12:55:36;16.20;91.40
23251;DHT22;11794;49.730;10.088;2024-03-08T12:58:02;16.80;91.60
23251;DHT22;11794;49.730;10.088;2024-03-08T13:00:27;17.20;91.00
23251;DHT22;11794;49.730;10.088;2024-03-08T13:02:53;18.00;91.40
23251;DHT22;11794;49.730;10.088;2024-03-08T13:05:19;18.20;90.50
23251;DHT22;11794;49.730;10.088;2024-03-08T13:07:45;17.50;89.20
23251;DHT22;11794;49.730;10.088;2024-03-08T13:10:15;18.20;88.40
23251;DHT22;11794;49.730;10.088;2024-03-08T13:12:44;17.80;88.70
23251;DHT22;11794;49.730;10.088;2024-03-08T13:15:10;18.00;89.30
23251;DHT22;11794;49.730;10.088;2024-03-08T13:17:40;17.90;87.60
23251;DHT22;11794;49.730;10.088;2024-03-08T13:20:07;18.20;87.50
23251;DHT22;11794;49.730;10.088;2024-03-08T13:22:33;18.20;87.20
23251;DHT22;11794;49.730;10.088;2024-03-08T13:24:58;18.40;85.20
23251;DHT22;11794;49.730;10.088;2024-03-08T13:27:27;16.70;86.20
23251;DHT22;11794;49.730;10.088;2024-03-08T13:29:53;16.30;89.10
23251;DHT22;11794;49.730;10.088;2024-03-08T13:32:18;16.50;88.40
23251;DHT22;11794;49.730;10.088;2024-03-08T13:34:46;17.70;86.80
23251;DHT22;11794;49.730;10.088;2024-03-08T13:37:13;17.70;86.40
23251;DHT22;11794;49.730;10.088;2024-03-08T13:39:41;17.30;86.10
23251;DHT22;11794;49.730;10.088;2024-03-08T13:42:10;17.10;85.30
23251;DHT22;11794;49.730;10.088;2024-03-08T13:44:47;16.90;87.70
23251;DHT22;11794;49.730;10.088;2024-03-08T13:47:16;16.90;85.40
23251;DHT22;11794;49.730;10.088;2024-03-08T13:49:42;17.00;87.70
23251;DHT22;11794;49.730;10.088;2024-03-08T13:52:09;16.70;85.80
23251;DHT22;11794;49.730;10.088;2024-03-08T13:54:36;16.10;87.10
23251;DHT22;11794;49.730;10.088;2024-03-08T13:57:02;16.40;88.40
23251;DHT22;11794;49.730;10.088;2024-03-08T13:59:30;17.50;87.60
23251;DHT22;11794;49.730;10.088;2024-03-08T14:01:58;17.20;85.00
23251;DHT22;11794;49.730;10.088;2024-03-08T14:04:25;16.80;84.90
23251;DHT22;11794;49.730;10.088;2024-03-08T14:06:52;16.30;86.60
23251;DHT22;11794;49.730;10.088;2024-03-08T14:09:21;17.00;85.20
23251;DHT22;11794;49.730;10.088;2024-03-08T14:11:50;17.00;84.30
23251;DHT22;11794;49.730;10.088;2024-03-08T14:14:19;16.60;85.40
23251;DHT22;11794;49.730;10.088;2024-03-08T14:16:46;16.70;85.30
23251;DHT22;11794;49.730;10.088;2024-03-08T14:19:13;16.90;85.10
23251;DHT22;11794;49.730;10.088;2024-03-08T14:21:40;17.00;84.60
23251;DHT22;11794;49.730;10.088;2024-03-08T14:24:07;17.40;83.10
23251;DHT22;11794;49.730;10.088;2024-03-08T14:26:33;17.10;84.50
23251;DHT22;11794;49.730;10.088;2024-03-08T14:28:59;18.60;85.40
23251;DHT22;11794;49.730;10.088;2024-03-08T14:31:25;18.60;84.00
23251;DHT22;11794;49.730;10.088;2024-03-08T14:33:51;19.20;83.40
23251;DHT22;11794;49.730;10.088;2024-03-08T14:36:18;18.70;82.90
23251;DHT22;11794;49.730;10.088;2024-03-08T14:38:45;18.00;82.90
23251;DHT22;11794;49.730;10.088;2024-03-08T14:41:12;17.20;84.60
23251;DHT22;11794;49.730;10.088;2024-03-08T14:43:41;16.30;86.40
23251;DHT22;11794;49.730;10.088;2024-03-08T14:46:13;16.70;87.50
23251;DHT22;11794;49.730;10.088;2024-03-08T14:48:43;16.00;87.50
23251;DHT22;11794;49.730;10.088;2024-03-08T14:51:08;15.60;88.20
23251;DHT22;11794;49.730;10.088;2024-03-08T14:53:36;15.70;88.30
23251;DHT22;11794;49.730;10.088;2024-03-08T14:56:06;15.80;88.00
23251;DHT22;11794;49.730;10.088;2024-03-08T14:58:32;15.90;88.50
23251;DHT22;11794;49.730;10.088;2024-03-08T15:00:58;16.10;87.40
23251;DHT22;11794;49.730;10.088;2024-03-08T15:03:25;15.70;87.50
23251;DHT22;11794;49.730;10.088;2024-03-08T15:05:52;15.00;89.40
23251;DHT22;11794;49.730;10.088;2024-03-08T15:08:19;15.00;90.00
23251;DHT22;11794;49.730;10.088;2024-03-08T15:10:46;14.90;90.10
23251;DHT22;11794;49.730;10.088;2024-03-08T15:13:13;15.10;90.40
23251;DHT22;11794;49.730;10.088;2024-03-08T15:15:46;15.30;89.80
23251;DHT22;11794;49.730;10.088;2024-03-08T15:18:13;14.60;90.20
23251;DHT22;11794;49.730;10.088;2024-03-08T15:20:39;14.50;90.70
23251;DHT22;11794;49.730;10.088;2024-03-08T15:23:06;14.40;90.30
23251;DHT22;11794;49.730;10.088;2024-03-08T15:25:34;14.50;90.80
23251;DHT22;11794;49.730;10.088;2024-03-08T15:28:02;14.80;90.50
23251;DHT22;11794;49.730;10.088;2024-03-08T15:30:29;14.70;90.00